sensor_id;sensor_type;location;lat;lon;timestamp;pressure;altitude;pressure_sealevel;temperature;humidity
56594;BME280;42474;51.660;5.824;2023-04-01T00:00:44;99050.0;;;11.0;91.5
56594;BME280;42474;51.660;5.824;2023-04-01T00:05:44;99060.0;;;11.0;91.5
56594;BME280;42474;51.660;5.824;2023-04-01T00:10:44;99050.0;;;11.0;91.5
56594;BME280;42474;51.660;5.824;2023-04-01T00:15:44;99050.0;;;11.0;92.0
56594;BME280;42474;51.660;5.824;2023-04-01T00:20:44;99050.0;;;10.9;92.0
56594;BME280;42474;51.660;5.824;2023-04-01T00:25:45;99060.0;;;10.9;92.0
56594;BME280;42474;51.660;5.824;2023-04-01T00:30:43;99060.0;;;10.9;92.0
56594;BME280;42474;51.660;5.824;2023-04-01T00:35:44;99060.0;;;10.9;92.5
56594;BME280;42474;51.660;5.824;2023-04-01T00:40:45;99060.0;;;10.9;92.5
56594;BME280;42474;51.660;5.824;2023-04-01T00:45:44;99070.0;;;10.9;92.5
56594;BME280;42474;51.660;5.824;2023-04-01T00:50:46;99070.0;;;10.9;92.5
56594;BME280;42474;51.660;5.824;2023-04-01T01:00:45;99070.0;;;10.9;92.5
56594;BME280;42474;51.660;5.824;2023-04-01T01:06:04;99080.0;;;10.9;92.5
56594;BME280;42474;51.660;5.824;2023-04-01T01:10:50;99080.0;;;10.9;93.0
56594;BME280;42474;51.660;5.824;2023-04-01T01:16:00;99080.0;;;10.9;93.0
56594;BME280;42474;51.660;5.824;2023-04-01T01:21:47;99090.0;;;10.9;93.0
56594;BME280;42474;51.660;5.824;2023-04-01T01:27:06;99090.0;;;10.9;93.0
56594;BME280;42474;51.660;5.824;2023-04-01T01:31:12;99090.0;;;10.9;93.0
56594;BME280;42474;51.660;5.824;2023-04-01T01:35:53;99090.0;;;10.9;93.0
56594;BME280;42474;51.660;5.824;2023-04-01T01:40:49;99100.0;;;10.9;93.0
56594;BME280;42474;51.660;5.824;2023-04-01T01:45:46;99100.0;;;10.9;93.0
56594;BME280;42474;51.660;5.824;2023-04-01T01:50:44;99110.0;;;10.9;93.0
56594;BME280;42474;51.660;5.824;2023-04-01T01:55:45;99100.0;;;10.9;93.5
56594;BME280;42474;51.660;5.824;2023-04-01T02:00:49;99110.0;;;10.9;93.5
56594;BME280;42474;51.660;5.824;2023-04-01T02:05:44;99110.0;;;10.9;93.5
56594;BME280;42474;51.660;5.824;2023-04-01T02:10:48;99110.0;;;10.9;93.5
56594;BME280;42474;51.660;5.824;2023-04-01T02:15:50;99120.0;;;10.8;94.0
56594;BME280;42474;51.660;5.824;2023-04-01T02:20:44;99110.0;;;10.8;94.0
56594;BME280;42474;51.660;5.824;2023-04-01T02:25:45;99120.0;;;10.8;94.0
56594;BME280;42474;51.660;5.824;2023-04-01T02:30:44;99130.0;;;10.8;94.0
56594;BME280;42474;51.660;5.824;2023-04-01T02:35:43;99130.0;;;10.8;94.0
56594;BME280;42474;51.660;5.824;2023-04-01T02:40:49;99140.0;;;10.8;94.5
56594;BME280;42474;51.660;5.824;2023-04-01T02:45:43;99140.0;;;10.8;94.0
56594;BME280;42474;51.660;5.824;2023-04-01T02:50:43;99140.0;;;10.8;94.5
56594;BME280;42474;51.660;5.824;2023-04-01T02:55:43;99140.0;;;10.8;94.5
56594;BME280;42474;51.660;5.824;2023-04-01T03:00:43;99150.0;;;10.7;94.5
56594;BME280;42474;51.660;5.824;2023-04-01T03:05:43;99150.0;;;10.7;94.5
56594;BME280;42474;51.660;5.824;2023-04-01T03:10:43;99150.0;;;10.7;94.5
56594;BME280;42474;51.660;5.824;2023-04-01T03:15:43;99150.0;;;10.7;93.5
56594;BME280;42474;51.660;5.824;2023-04-01T03:20:44;99160.0;;;10.7;94.5
56594;BME280;42474;51.660;5.824;2023-04-01T03:25:43;99170.0;;;10.6;94.5
56594;BME280;42474;51.660;5.824;2023-04-01T03:30:43;99170.0;;;10.6;94.5
56594;BME280;42474;51.660;5.824;2023-04-01T03:35:43;99170.0;;;10.6;94.5
56594;BME280;42474;51.660;5.824;2023-04-01T03:40:44;99180.0;;;10.6;94.5
56594;BME280;42474;51.660;5.824;2023-04-01T03:45:44;99170.0;;;10.6;95.0
56594;BME280;42474;51.660;5.824;2023-04-01T03:50:44;99180.0;;;10.6;95.0
56594;BME280;42474;51.660;5.824;2023-04-01T03:55:43;99170.0;;;10.6;95.0
56594;BME280;42474;51.660;5.824;2023-04-01T04:00:43;99170.0;;;10.6;95.0
56594;BME280;42474;51.660;5.824;2023-04-01T04:05:46;99170.0;;;10.5;95.5
56594;BME280;42474;51.660;5.824;2023-04-01T04:10:44;99180.0;;;10.5;95.5
56594;BME280;42474;51.660;5.824;2023-04-01T04:15:43;99180.0;;;10.5;95.5
56594;BME280;42474;51.660;5.824;2023-04-01T04:20:43;99190.0;;;10.5;95.5
56594;BME280;42474;51.660;5.824;2023-04-01T04:25:52;99190.0;;;10.5;95.5
56594;BME280;42474;51.660;5.824;2023-04-01T04:30:43;99200.0;;;10.5;95.5
56594;BME280;42474;51.660;5.824;2023-04-01T04:35:44;99200.0;;;10.5;95.5
56594;BME280;42474;51.660;5.824;2023-04-01T04:45:44;99200.0;;;10.4;96.0
56594;BME280;42474;51.660;5.824;2023-04-01T04:55:44;99210.0;;;10.4;96.0
56594;BME280;42474;51.660;5.824;2023-04-01T05:00:44;99230.0;;;10.4;96.0
56594;BME280;42474;51.660;5.824;2023-04-01T05:05:49;99220.0;;;10.3;95.5
56594;BME280;42474;51.660;5.824;2023-04-01T05:10:43;99220.0;;;10.3;96.0
56594;BME280;42474;51.660;5.824;2023-04-01T05:15:44;99240.0;;;10.3;96.0
56594;BME280;42474;51.660;5.824;2023-04-01T05:20:45;99240.0;;;10.3;96.0
56594;BME280;42474;51.660;5.824;2023-04-01T05:25:44;99250.0;;;10.3;96.0
56594;BME280;42474;51.660;5.824;2023-04-01T05:30:44;99240.0;;;10.3;96.0
56594;BME280;42474;51.660;5.824;2023-04-01T05:35:44;99260.0;;;10.3;96.0
56594;BME280;42474;51.660;5.824;2023-04-01T05:40:44;99260.0;;;10.3;96.0
56594;BME280;42474;51.660;5.824;2023-04-01T05:45:44;99260.0;;;10.3;96.0
56594;BME280;42474;51.660;5.824;2023-04-01T05:50:44;99270.0;;;10.3;96.0
56594;BME280;42474;51.660;5.824;2023-04-01T05:55:44;99280.0;;;10.3;96.5
56594;BME280;42474;51.660;5.824;2023-04-01T06:00:44;99280.0;;;10.3;96.5
56594;BME280;42474;51.660;5.824;2023-04-01T06:05:44;99290.0;;;10.3;96.5
56594;BME280;42474;51.660;5.824;2023-04-01T06:10:58;99300.0;;;10.4;96.5
56594;BME280;42474;51.660;5.824;2023-04-01T06:16:03;99300.0;;;10.4;97.0
56594;BME280;42474;51.660;5.824;2023-04-01T06:21:05;99310.0;;;10.4;97.0
56594;BME280;42474;51.660;5.824;2023-04-01T06:26:24;99320.0;;;10.5;97.0
56594;BME280;42474;51.660;5.824;2023-04-01T06:31:35;99330.0;;;10.5;97.0
56594;BME280;42474;51.660;5.824;2023-04-01T06:36:36;99340.0;;;10.6;97.0
56594;BME280;42474;51.660;5.824;2023-04-01T06:41:56;99340.0;;;10.6;97.0
56594;BME280;42474;51.660;5.824;2023-04-01T06:46:48;99350.0;;;10.6;97.0
56594;BME280;42474;51.660;5.824;2023-04-01T06:52:19;99350.0;;;10.7;97.0
56594;BME280;42474;51.660;5.824;2023-04-01T06:55:59;99370.0;;;10.8;97.0
56594;BME280;42474;51.660;5.824;2023-04-01T07:00:46;99370.0;;;10.8;97.0
56594;BME280;42474;51.660;5.824;2023-04-01T07:05:44;99370.0;;;10.9;97.0
56594;BME280;42474;51.660;5.824;2023-04-01T07:10:53;99380.0;;;11.0;97.0
56594;BME280;42474;51.660;5.824;2023-04-01T07:15:46;99390.0;;;11.0;97.0
56594;BME280;42474;51.660;5.824;2023-04-01T07:20:44;99390.0;;;11.1;97.0
56594;BME280;42474;51.660;5.824;2023-04-01T07:25:45;99400.0;;;11.1;97.0
56594;BME280;42474;51.660;5.824;2023-04-01T07:31:18;99410.0;;;11.1;97.0
56594;BME280;42474;51.660;5.824;2023-04-01T07:35:52;99420.0;;;11.2;97.0
56594;BME280;42474;51.660;5.824;2023-04-01T07:41:33;99420.0;;;11.3;97.0
56594;BME280;42474;51.660;5.824;2023-04-01T07:46:53;99430.0;;;11.4;96.5
56594;BME280;42474;51.660;5.824;2023-04-01T07:51:07;99440.0;;;11.4;96.5
56594;BME280;42474;51.660;5.824;2023-04-01T07:56:08;99440.0;;;11.5;96.0
56594;BME280;42474;51.660;5.824;2023-04-01T08:00:56;99450.0;;;11.5;96.0
56594;BME280;42474;51.660;5.824;2023-04-01T08:06:10;99450.0;;;11.6;96.0
56594;BME280;42474;51.660;5.824;2023-04-01T08:11:03;99470.0;;;11.6;95.5
56594;BME280;42474;51.660;5.824;2023-04-01T08:16:12;99470.0;;;11.5;95.5
56594;BME280;42474;51.660;5.824;2023-04-01T08:20:51;99480.0;;;11.5;95.5
56594;BME280;42474;51.660;5.824;2023-04-01T08:25:54;99480.0;;;11.5;95.5
56594;BME280;42474;51.660;5.824;2023-04-01T08:30:53;99500.0;;;11.4;95.5
56594;BME280;42474;51.660;5.824;2023-04-01T08:35:50;99500.0;;;11.4;96.0
56594;BME280;42474;51.660;5.824;2023-04-01T08:41:00;99500.0;;;11.4;96.0
56594;BME280;42474;51.660;5.824;2023-04-01T08:46:02;99510.0;;;11.4;96.0
56594;BME280;42474;51.660;5.824;2023-04-01T08:51:08;99520.0;;;11.4;96.0
56594;BME280;42474;51.660;5.824;2023-04-01T08:56:20;99520.0;;;11.4;96.0
56594;BME280;42474;51.660;5.824;2023-04-01T09:01:33;99540.0;;;11.4;96.0
56594;BME280;42474;51.660;5.824;2023-04-01T09:07:28;99540.0;;;11.4;96.0
56594;BME280;42474;51.660;5.824;2023-04-01T09:13:20;99540.0;;;11.4;96.0
56594;BME280;42474;51.660;5.824;2023-04-01T09:18:51;99560.0;;;11.5;96.0
56594;BME280;42474;51.660;5.824;2023-04-01T09:25:21;99570.0;;;11.5;96.0
56594;BME280;42474;51.660;5.824;2023-04-01T09:29:42;99570.0;;;11.5;96.0
56594;BME280;42474;51.660;5.824;2023-04-01T09:36:18;99570.0;;;11.5;96.0
56594;BME280;42474;51.660;5.824;2023-04-01T09:40:33;99580.0;;;11.5;96.0
56594;BME280;42474;51.660;5.824;2023-04-01T09:45:42;99590.0;;;11.5;96.0
56594;BME280;42474;51.660;5.824;2023-04-01T09:51:09;99590.0;;;11.5;96.0
56594;BME280;42474;51.660;5.824;2023-04-01T09:57:46;99600.0;;;11.6;96.0
56594;BME280;42474;51.660;5.824;2023-04-01T10:05:50;99600.0;;;11.6;96.0
56594;BME280;42474;51.660;5.824;2023-04-01T10:13:29;99600.0;;;11.7;96.0
56594;BME280;42474;51.660;5.824;2023-04-01T10:20:59;99610.0;;;11.8;96.0
56594;BME280;42474;51.660;5.824;2023-04-01T10:27:33;99620.0;;;11.9;95.5
56594;BME280;42474;51.660;5.824;2023-04-01T10:34:26;99620.0;;;12.0;96.0
56594;BME280;42474;51.660;5.824;2023-04-01T10:40:53;99630.0;;;12.1;95.5
56594;BME280;42474;51.660;5.824;2023-04-01T10:48:23;99640.0;;;12.1;95.5
56594;BME280;42474;51.660;5.824;2023-04-01T10:55:07;99650.0;;;12.1;95.0
56594;BME280;42474;51.660;5.824;2023-04-01T11:01:27;99650.0;;;12.0;95.5
56594;BME280;42474;51.660;5.824;2023-04-01T11:11:51;99650.0;;;12.0;95.0
56594;BME280;42474;51.660;5.824;2023-04-01T11:19:12;99650.0;;;12.0;95.0
56594;BME280;42474;51.660;5.824;2023-04-01T11:25:42;99660.0;;;12.0;95.0
56594;BME280;42474;51.660;5.824;2023-04-01T11:31:18;99670.0;;;12.0;95.0
56594;BME280;42474;51.660;5.824;2023-04-01T11:36:14;99670.0;;;12.0;95.5
56594;BME280;42474;51.660;5.824;2023-04-01T11:41:42;99670.0;;;12.1;95.5
56594;BME280;42474;51.660;5.824;2023-04-01T11:45:58;99670.0;;;12.1;95.5
56594;BME280;42474;51.660;5.824;2023-04-01T11:50:45;99670.0;;;12.2;95.0
56594;BME280;42474;51.660;5.824;2023-04-01T11:56:33;99680.0;;;12.2;95.0
56594;BME280;42474;51.660;5.824;2023-04-01T12:01:40;99680.0;;;12.3;95.0
56594;BME280;42474;51.660;5.824;2023-04-01T12:06:44;99690.0;;;12.5;95.0
56594;BME280;42474;51.660;5.824;2023-04-01T12:11:34;99700.0;;;12.7;95.0
56594;BME280;42474;51.660;5.824;2023-04-01T12:16:43;99710.0;;;12.7;94.5
56594;BME280;42474;51.660;5.824;2023-04-01T12:21:08;99710.0;;;12.6;94.5
56594;BME280;42474;51.660;5.824;2023-04-01T12:26:42;99710.0;;;12.6;94.5
56594;BME280;42474;51.660;5.824;2023-04-01T12:31:42;99720.0;;;12.6;94.5
56594;BME280;42474;51.660;5.824;2023-04-01T12:37:03;99720.0;;;12.6;94.5
56594;BME280;42474;51.660;5.824;2023-04-01T12:42:44;99740.0;;;12.7;94.5
56594;BME280;42474;51.660;5.824;2023-04-01T12:48:22;99740.0;;;12.7;94.0
56594;BME280;42474;51.660;5.824;2023-04-01T12:53:57;99750.0;;;12.6;94.0
56594;BME280;42474;51.660;5.824;2023-04-01T12:59:20;99760.0;;;12.6;94.5
56594;BME280;42474;51.660;5.824;2023-04-01T13:06:07;99760.0;;;12.7;94.5
56594;BME280;42474;51.660;5.824;2023-04-01T13:11:08;99760.0;;;12.9;94.5
56594;BME280;42474;51.660;5.824;2023-04-01T13:16:46;99770.0;;;13.1;94.5
56594;BME280;42474;51.660;5.824;2023-04-01T13:21:54;99780.0;;;13.2;94.0
56594;BME280;42474;51.660;5.824;2023-04-01T13:27:14;99780.0;;;13.2;93.5
56594;BME280;42474;51.660;5.824;2023-04-01T13:30:56;99790.0;;;13.2;92.5
56594;BME280;42474;51.660;5.824;2023-04-01T13:36:03;99790.0;;;13.2;92.5
56594;BME280;42474;51.660;5.824;2023-04-01T13:42:16;99790.0;;;13.2;93.0
56594;BME280;42474;51.660;5.824;2023-04-01T13:46:26;99790.0;;;13.3;93.0
56594;BME280;42474;51.660;5.824;2023-04-01T13:52:40;99810.0;;;13.4;93.0
56594;BME280;42474;51.660;5.824;2023-04-01T13:57:37;99820.0;;;13.4;93.0
56594;BME280;42474;51.660;5.824;2023-04-01T14:02:56;99820.0;;;13.3;92.5
56594;BME280;42474;51.660;5.824;2023-04-01T14:07:50;99820.0;;;13.1;92.0
56594;BME280;42474;51.660;5.824;2023-04-01T14:13:12;99830.0;;;13.0;92.5
56594;BME280;42474;51.660;5.824;2023-04-01T14:18:46;99830.0;;;13.0;92.5
56594;BME280;42474;51.660;5.824;2023-04-01T14:24:18;99830.0;;;12.9;92.5
56594;BME280;42474;51.660;5.824;2023-04-01T14:34:59;99850.0;;;12.7;93.0
56594;BME280;42474;51.660;5.824;2023-04-01T14:40:27;99850.0;;;12.6;93.0
56594;BME280;42474;51.660;5.824;2023-04-01T14:46:26;99860.0;;;12.6;93.5
56594;BME280;42474;51.660;5.824;2023-04-01T14:52:14;99870.0;;;12.4;93.5
56594;BME280;42474;51.660;5.824;2023-04-01T14:55:01;99880.0;;;12.3;94.0
56594;BME280;42474;51.660;5.824;2023-04-01T14:56:08;99880.0;;;12.3;94.0
56594;BME280;42474;51.660;5.824;2023-04-01T14:57:34;99890.0;;;12.3;94.0
56594;BME280;42474;51.660;5.824;2023-04-01T14:57:39;99900.0;;;12.3;94.5
56594;BME280;42474;51.660;5.824;2023-04-01T14:58:45;99900.0;;;12.3;94.5
56594;BME280;42474;51.660;5.824;2023-04-01T14:59:31;99900.0;;;12.3;94.5
56594;BME280;42474;51.660;5.824;2023-04-01T15:00:22;99900.0;;;12.3;94.5
56594;BME280;42474;51.660;5.824;2023-04-01T15:03:55;99910.0;;;12.3;94.5
56594;BME280;42474;51.660;5.824;2023-04-01T15:09:14;99910.0;;;12.4;94.5
56594;BME280;42474;51.660;5.824;2023-04-01T15:15:17;99930.0;;;12.3;94.5
56594;BME280;42474;51.660;5.824;2023-04-01T15:20:25;99930.0;;;12.3;94.5
56594;BME280;42474;51.660;5.824;2023-04-01T15:26:33;99930.0;;;12.3;95.0
56594;BME280;42474;51.660;5.824;2023-04-01T15:31:38;99940.0;;;12.3;95.0
56594;BME280;42474;51.660;5.824;2023-04-01T15:37:02;99950.0;;;12.4;95.0
56594;BME280;42474;51.660;5.824;2023-04-01T15:41:24;99950.0;;;12.4;95.0
56594;BME280;42474;51.660;5.824;2023-04-01T15:43:54;99960.0;;;12.5;95.0
56594;BME280;42474;51.660;5.824;2023-04-01T15:43:57;99960.0;;;12.5;95.0
56594;BME280;42474;51.660;5.824;2023-04-01T15:44:02;99970.0;;;12.4;95.0
56594;BME280;42474;51.660;5.824;2023-04-01T15:46:52;99980.0;;;12.3;95.0
56594;BME280;42474;51.660;5.824;2023-04-01T15:51:10;99990.0;;;12.3;95.0
56594;BME280;42474;51.660;5.824;2023-04-01T15:55:57;99990.0;;;12.2;95.0
56594;BME280;42474;51.660;5.824;2023-04-01T16:01:44;100000.0;;;12.1;95.0
56594;BME280;42474;51.660;5.824;2023-04-01T16:06:53;100010.0;;;12.1;95.0
56594;BME280;42474;51.660;5.824;2023-04-01T16:13:00;100010.0;;;12.0;95.5
56594;BME280;42474;51.660;5.824;2023-04-01T16:18:34;100020.0;;;12.0;95.5
56594;BME280;42474;51.660;5.824;2023-04-01T16:23:04;100030.0;;;11.9;95.5
56594;BME280;42474;51.660;5.824;2023-04-01T16:26:57;100030.0;;;11.9;96.0
56594;BME280;42474;51.660;5.824;2023-04-01T16:31:43;100030.0;;;11.9;96.0
56594;BME280;42474;51.660;5.824;2023-04-01T16:36:07;100050.0;;;11.9;96.0
56594;BME280;42474;51.660;5.824;2023-04-01T16:41:16;100050.0;;;11.9;96.0
56594;BME280;42474;51.660;5.824;2023-04-01T16:45:53;100070.0;;;11.9;96.5
56594;BME280;42474;51.660;5.824;2023-04-01T16:50:48;100070.0;;;11.8;97.0
56594;BME280;42474;51.660;5.824;2023-04-01T16:55:49;100080.0;;;11.9;97.0
56594;BME280;42474;51.660;5.824;2023-04-01T17:01:06;100090.0;;;11.9;97.0
56594;BME280;42474;51.660;5.824;2023-04-01T17:05:49;100100.0;;;11.9;97.0
56594;BME280;42474;51.660;5.824;2023-04-01T17:12:07;100110.0;;;11.9;97.0
56594;BME280;42474;51.660;5.824;2023-04-01T17:16:31;100120.0;;;11.9;97.0
56594;BME280;42474;51.660;5.824;2023-04-01T17:21:10;100130.0;;;12.0;97.0
56594;BME280;42474;51.660;5.824;2023-04-01T17:26:08;100140.0;;;11.9;97.0
56594;BME280;42474;51.660;5.824;2023-04-01T17:31:26;100150.0;;;11.8;97.0
56594;BME280;42474;51.660;5.824;2023-04-01T17:36:21;100160.0;;;11.8;97.0
56594;BME280;42474;51.660;5.824;2023-04-01T17:41:28;100170.0;;;11.7;97.5
56594;BME280;42474;51.660;5.824;2023-04-01T17:45:53;100190.0;;;11.6;97.5
56594;BME280;42474;51.660;5.824;2023-04-01T17:50:59;100200.0;;;11.6;97.5
56594;BME280;42474;51.660;5.824;2023-04-01T17:56:32;100210.0;;;11.6;98.0
56594;BME280;42474;51.660;5.824;2023-04-01T18:01:22;100220.0;;;11.5;97.5
56594;BME280;42474;51.660;5.824;2023-04-01T18:06:54;100240.0;;;11.4;96.5
56594;BME280;42474;51.660;5.824;2023-04-01T18:12:20;100240.0;;;11.2;96.5
56594;BME280;42474;51.660;5.824;2023-04-01T18:17:46;100260.0;;;11.0;97.5
56594;BME280;42474;51.660;5.824;2023-04-01T18:22:45;100270.0;;;11.0;98.5
56594;BME280;42474;51.660;5.824;2023-04-01T18:26:06;100290.0;;;11.0;99.0
56594;BME280;42474;51.660;5.824;2023-04-01T18:30:49;100300.0;;;11.0;99.5
56594;BME280;42474;51.660;5.824;2023-04-01T18:36:04;100320.0;;;11.0;99.0
56594;BME280;42474;51.660;5.824;2023-04-01T18:40:50;100330.0;;;10.9;98.0
56594;BME280;42474;51.660;5.824;2023-04-01T18:45:47;100350.0;;;10.8;97.5
56594;BME280;42474;51.660;5.824;2023-04-01T18:50:53;100350.0;;;10.7;98.0
56594;BME280;42474;51.660;5.824;2023-04-01T18:55:54;100360.0;;;10.7;98.0
56594;BME280;42474;51.660;5.824;2023-04-01T19:01:12;100380.0;;;10.7;98.0
56594;BME280;42474;51.660;5.824;2023-04-01T19:05:47;100390.0;;;10.6;98.0
56594;BME280;42474;51.660;5.824;2023-04-01T19:10:57;100400.0;;;10.6;98.0
56594;BME280;42474;51.660;5.824;2023-04-01T19:16:12;100410.0;;;10.5;98.0
56594;BME280;42474;51.660;5.824;2023-04-01T19:21:18;100430.0;;;10.4;97.5
56594;BME280;42474;51.660;5.824;2023-04-01T19:26:00;100430.0;;;10.4;97.5
56594;BME280;42474;51.660;5.824;2023-04-01T19:31:03;100450.0;;;10.2;98.0
56594;BME280;42474;51.660;5.824;2023-04-01T19:36:23;100460.0;;;10.2;98.0
56594;BME280;42474;51.660;5.824;2023-04-01T19:40:53;100470.0;;;10.2;98.5
56594;BME280;42474;51.660;5.824;2023-04-01T19:46:25;100480.0;;;10.2;98.0
56594;BME280;42474;51.660;5.824;2023-04-01T19:51:09;100490.0;;;10.1;97.5
56594;BME280;42474;51.660;5.824;2023-04-01T19:55:58;100490.0;;;10.0;98.0
56594;BME280;42474;51.660;5.824;2023-04-01T20:00:47;100510.0;;;9.9;98.0
56594;BME280;42474;51.660;5.824;2023-04-01T20:06:02;100510.0;;;9.7;98.5
56594;BME280;42474;51.660;5.824;2023-04-01T20:11:04;100530.0;;;9.6;99.0
56594;BME280;42474;51.660;5.824;2023-04-01T20:15:45;100540.0;;;9.6;100.0
56594;BME280;42474;51.660;5.824;2023-04-01T20:20:54;100550.0;;;9.6;100.0
56594;BME280;42474;51.660;5.824;2023-04-01T20:25:57;100570.0;;;9.5;99.5
56594;BME280;42474;51.660;5.824;2023-04-01T20:31:12;100580.0;;;9.5;99.5
56594;BME280;42474;51.660;5.824;2023-04-01T20:36:23;100590.0;;;9.5;99.0
56594;BME280;42474;51.660;5.824;2023-04-01T20:41:05;100600.0;;;9.5;98.5
56594;BME280;42474;51.660;5.824;2023-04-01T20:45:56;100610.0;;;9.5;98.5
56594;BME280;42474;51.660;5.824;2023-04-01T20:51:03;100620.0;;;9.5;98.0
56594;BME280;42474;51.660;5.824;2023-04-01T20:56:27;100630.0;;;9.6;98.0
56594;BME280;42474;51.660;5.824;2023-04-01T21:01:20;100640.0;;;9.5;97.0
56594;BME280;42474;51.660;5.824;2023-04-01T21:06:59;100650.0;;;9.5;97.0
56594;BME280;42474;51.660;5.824;2023-04-01T21:11:35;100670.0;;;9.5;96.0
56594;BME280;42474;51.660;5.824;2023-04-01T21:16:36;100670.0;;;9.3;96.5
56594;BME280;42474;51.660;5.824;2023-04-01T21:22:21;100680.0;;;9.3;96.5
56594;BME280;42474;51.660;5.824;2023-04-01T21:27:20;100690.0;;;9.3;97.0
56594;BME280;42474;51.660;5.824;2023-04-01T21:33:07;100700.0;;;9.2;96.5
56594;BME280;42474;51.660;5.824;2023-04-01T21:38:27;100710.0;;;9.2;96.5
56594;BME280;42474;51.660;5.824;2023-04-01T21:44:48;100720.0;;;9.1;97.0
56594;BME280;42474;51.660;5.824;2023-04-01T21:51:43;100730.0;;;9.1;96.5
56594;BME280;42474;51.660;5.824;2023-04-01T21:59:50;100750.0;;;9.0;95.5
56594;BME280;42474;51.660;5.824;2023-04-01T22:05:14;100760.0;;;9.0;96.0
56594;BME280;42474;51.660;5.824;2023-04-01T22:08:59;100770.0;;;9.0;95.0
56594;BME280;42474;51.660;5.824;2023-04-01T22:13:41;100780.0;;;8.9;95.5
56594;BME280;42474;51.660;5.824;2023-04-01T22:17:45;100790.0;;;8.9;95.5
56594;BME280;42474;51.660;5.824;2023-04-01T22:22:39;100800.0;;;8.8;94.5
56594;BME280;42474;51.660;5.824;2023-04-01T22:27:01;100810.0;;;8.8;94.5
56594;BME280;42474;51.660;5.824;2023-04-01T22:31:01;100820.0;;;8.7;94.5
56594;BME280;42474;51.660;5.824;2023-04-01T22:35:12;100830.0;;;8.7;94.0
56594;BME280;42474;51.660;5.824;2023-04-01T22:40:40;100840.0;;;8.6;94.0
56594;BME280;42474;51.660;5.824;2023-04-01T22:43:57;100840.0;;;8.5;94.0
56594;BME280;42474;51.660;5.824;2023-04-01T22:46:42;100860.0;;;8.5;94.0
56594;BME280;42474;51.660;5.824;2023-04-01T22:51:11;100870.0;;;8.4;94.5
56594;BME280;42474;51.660;5.824;2023-04-01T22:55:46;100870.0;;;8.3;94.5
56594;BME280;42474;51.660;5.824;2023-04-01T23:00:48;100890.0;;;8.3;95.0
56594;BME280;42474;51.660;5.824;2023-04-01T23:05:58;100890.0;;;8.3;95.0
56594;BME280;42474;51.660;5.824;2023-04-01T23:10:52;100890.0;;;8.3;95.0
56594;BME280;42474;51.660;5.824;2023-04-01T23:20:56;100920.0;;;8.3;95.5
56594;BME280;42474;51.660;5.824;2023-04-01T23:26:06;100920.0;;;8.3;95.0
56594;BME280;42474;51.660;5.824;2023-04-01T23:30:54;100930.0;;;8.2;95.0
56594;BME280;42474;51.660;5.824;2023-04-01T23:35:46;100940.0;;;8.2;94.5
56594;BME280;42474;51.660;5.824;2023-04-01T23:40:47;100950.0;;;8.1;94.5
56594;BME280;42474;51.660;5.824;2023-04-01T23:45:44;100950.0;;;8.2;94.0
56594;BME280;42474;51.660;5.824;2023-04-01T23:50:45;100980.0;;;8.1;94.0
56594;BME280;42474;51.660;5.824;2023-04-01T23:55:46;100980.0;;;8.0;94.0
